Terminal Aerodrome Forecast
Issued by NWS Wilmington, OH

Home | Current Version | Previous Version | Text Only | Print | Product List | Glossary On
Versions: 1 2 3 4 5 6 7 8 9 10 11 12 13 14 15 16 17 18 19 20 21 22 23 24 25 26 27 28 29 30 31 32
627
FTUS41 KILN 200323 AAB
TAFCVG
TAF AMD
KCVG 200323Z 2003/2106 12006KT P6SM -RA OVC018
      TEMPO 2005/2009 3SM RA BR OVC012
     FM201000 15006KT 3SM BR VCSH OVC009
     FM201300 18006KT 4SM BR OVC005
     FM201600 21007KT P6SM BKN008
     FM202100 18004KT P6SM BKN022=

USA.gov is the U.S. government's official web portal to all federal, state and local government web resources and services.